sensor_id;sensor_type;location;lat;lon;timestamp;P1;durP1;ratioP1;P2;durP2;ratioP2
51467;SDS011;37545;45.302;-122.946;2023-11-18T00:01:38;7.05;;;2.60;;
51467;SDS011;37545;45.302;-122.946;2023-11-18T00:04:09;8.95;;;2.72;;
51467;SDS011;37545;45.302;-122.946;2023-11-18T00:06:41;4.65;;;2.30;;
51467;SDS011;37545;45.302;-122.946;2023-11-18T00:09:11;5.47;;;2.65;;
51467;SDS011;37545;45.302;-122.946;2023-11-18T00:11:40;3.22;;;2.15;;
51467;SDS011;37545;45.302;-122.946;2023-11-18T00:14:11;7.40;;;3.35;;
51467;SDS011;37545;45.302;-122.946;2023-11-18T00:16:40;4.07;;;2.40;;
51467;SDS011;37545;45.302;-122.946;2023-11-18T00:19:08;4.15;;;2.60;;
51467;SDS011;37545;45.302;-122.946;2023-11-18T00:21:37;5.35;;;2.63;;
51467;SDS011;37545;45.302;-122.946;2023-11-18T00:26:40;6.28;;;2.72;;
51467;SDS011;37545;45.302;-122.946;2023-11-18T00:29:12;7.45;;;2.92;;
51467;SDS011;37545;45.302;-122.946;2023-11-18T00:31:41;5.05;;;2.25;;
51467;SDS011;37545;45.302;-122.946;2023-11-18T00:34:09;7.75;;;3.08;;
51467;SDS011;37545;45.302;-122.946;2023-11-18T00:36:38;3.63;;;2.38;;
51467;SDS011;37545;45.302;-122.946;2023-11-18T00:39:07;6.47;;;2.65;;
51467;SDS011;37545;45.302;-122.946;2023-11-18T00:41:36;6.50;;;2.58;;
51467;SDS011;37545;45.302;-122.946;2023-11-18T00:44:07;6.75;;;2.92;;
51467;SDS011;37545;45.302;-122.946;2023-11-18T00:46:40;5.20;;;2.83;;
51467;SDS011;37545;45.302;-122.946;2023-11-18T00:49:12;4.57;;;2.67;;
51467;SDS011;37545;45.302;-122.946;2023-11-18T00:51:41;5.93;;;3.03;;
51467;SDS011;37545;45.302;-122.946;2023-11-18T00:54:10;5.43;;;2.17;;
51467;SDS011;37545;45.302;-122.946;2023-11-18T00:56:39;7.55;;;3.28;;
51467;SDS011;37545;45.302;-122.946;2023-11-18T00:59:09;6.45;;;2.78;;
51467;SDS011;37545;45.302;-122.946;2023-11-18T01:01:37;6.28;;;3.05;;
51467;SDS011;37545;45.302;-122.946;2023-11-18T01:04:08;5.22;;;2.80;;
51467;SDS011;37545;45.302;-122.946;2023-11-18T01:06:37;6.95;;;3.10;;
51467;SDS011;37545;45.302;-122.946;2023-11-18T01:09:06;7.07;;;3.15;;
51467;SDS011;37545;45.302;-122.946;2023-11-18T01:11:35;5.25;;;2.75;;
51467;SDS011;37545;45.302;-122.946;2023-11-18T01:14:04;4.85;;;2.60;;
51467;SDS011;37545;45.302;-122.946;2023-11-18T01:16:33;6.90;;;3.13;;
51467;SDS011;37545;45.302;-122.946;2023-11-18T01:19:11;4.60;;;2.50;;
51467;SDS011;37545;45.302;-122.946;2023-11-18T01:21:40;3.47;;;2.28;;
51467;SDS011;37545;45.302;-122.946;2023-11-18T01:24:09;6.80;;;2.70;;
51467;SDS011;37545;45.302;-122.946;2023-11-18T01:26:38;7.10;;;3.22;;
51467;SDS011;37545;45.302;-122.946;2023-11-18T01:29:11;10.75;;;2.80;;
51467;SDS011;37545;45.302;-122.946;2023-11-18T01:31:40;7.47;;;3.15;;
51467;SDS011;37545;45.302;-122.946;2023-11-18T01:34:11;5.30;;;3.08;;
51467;SDS011;37545;45.302;-122.946;2023-11-18T01:36:39;6.68;;;3.38;;
51467;SDS011;37545;45.302;-122.946;2023-11-18T01:39:09;8.82;;;3.47;;
51467;SDS011;37545;45.302;-122.946;2023-11-18T01:41:38;10.60;;;3.50;;
51467;SDS011;37545;45.302;-122.946;2023-11-18T01:44:08;7.72;;;2.88;;
51467;SDS011;37545;45.302;-122.946;2023-11-18T01:46:39;8.40;;;2.47;;
51467;SDS011;37545;45.302;-122.946;2023-11-18T01:49:12;5.80;;;3.17;;
51467;SDS011;37545;45.302;-122.946;2023-11-18T01:51:41;5.82;;;2.35;;
51467;SDS011;37545;45.302;-122.946;2023-11-18T01:54:19;6.97;;;2.60;;
51467;SDS011;37545;45.302;-122.946;2023-11-18T01:56:49;5.53;;;2.60;;
51467;SDS011;37545;45.302;-122.946;2023-11-18T01:59:21;5.57;;;2.40;;
51467;SDS011;37545;45.302;-122.946;2023-11-18T02:01:52;8.85;;;3.45;;
51467;SDS011;37545;45.302;-122.946;2023-11-18T02:04:26;6.35;;;2.92;;
51467;SDS011;37545;45.302;-122.946;2023-11-18T02:06:55;5.93;;;3.33;;
51467;SDS011;37545;45.302;-122.946;2023-11-18T02:09:24;5.25;;;2.70;;
51467;SDS011;37545;45.302;-122.946;2023-11-18T02:11:56;7.15;;;3.53;;
51467;SDS011;37545;45.302;-122.946;2023-11-18T02:14:30;3.97;;;2.20;;
51467;SDS011;37545;45.302;-122.946;2023-11-18T02:17:03;9.18;;;2.83;;
51467;SDS011;37545;45.302;-122.946;2023-11-18T02:19:37;5.68;;;3.10;;
51467;SDS011;37545;45.302;-122.946;2023-11-18T02:22:07;6.55;;;3.47;;
51467;SDS011;37545;45.302;-122.946;2023-11-18T02:24:40;7.68;;;2.58;;
51467;SDS011;37545;45.302;-122.946;2023-11-18T02:29:44;6.88;;;3.08;;
51467;SDS011;37545;45.302;-122.946;2023-11-18T02:32:17;4.30;;;2.65;;
51467;SDS011;37545;45.302;-122.946;2023-11-18T02:37:39;6.85;;;3.05;;
51467;SDS011;37545;45.302;-122.946;2023-11-18T02:40:14;4.78;;;2.45;;
51467;SDS011;37545;45.302;-122.946;2023-11-18T02:42:48;6.88;;;3.50;;
51467;SDS011;37545;45.302;-122.946;2023-11-18T02:45:20;5.82;;;3.13;;
51467;SDS011;37545;45.302;-122.946;2023-11-18T02:47:49;6.25;;;2.58;;
51467;SDS011;37545;45.302;-122.946;2023-11-18T02:50:26;6.03;;;2.80;;
51467;SDS011;37545;45.302;-122.946;2023-11-18T02:52:55;5.35;;;2.30;;
51467;SDS011;37545;45.302;-122.946;2023-11-18T02:55:25;6.22;;;2.55;;
51467;SDS011;37545;45.302;-122.946;2023-11-18T02:57:55;5.63;;;2.72;;
51467;SDS011;37545;45.302;-122.946;2023-11-18T03:00:24;4.60;;;2.28;;
51467;SDS011;37545;45.302;-122.946;2023-11-18T03:02:54;5.05;;;2.42;;
51467;SDS011;37545;45.302;-122.946;2023-11-18T03:05:23;5.35;;;2.92;;
51467;SDS011;37545;45.302;-122.946;2023-11-18T03:07:51;3.97;;;2.67;;
51467;SDS011;37545;45.302;-122.946;2023-11-18T03:10:23;5.57;;;3.22;;
51467;SDS011;37545;45.302;-122.946;2023-11-18T03:12:52;5.00;;;2.22;;
51467;SDS011;37545;45.302;-122.946;2023-11-18T03:15:22;4.20;;;2.20;;
51467;SDS011;37545;45.302;-122.946;2023-11-18T03:17:51;5.93;;;2.38;;
51467;SDS011;37545;45.302;-122.946;2023-11-18T03:20:20;7.05;;;2.92;;
51467;SDS011;37545;45.302;-122.946;2023-11-18T03:22:51;5.90;;;2.90;;
51467;SDS011;37545;45.302;-122.946;2023-11-18T03:25:20;9.05;;;2.85;;
51467;SDS011;37545;45.302;-122.946;2023-11-18T03:27:51;6.80;;;2.55;;
51467;SDS011;37545;45.302;-122.946;2023-11-18T03:30:23;3.75;;;2.25;;
51467;SDS011;37545;45.302;-122.946;2023-11-18T03:32:52;4.85;;;1.98;;
51467;SDS011;37545;45.302;-122.946;2023-11-18T03:35:21;5.07;;;2.58;;
51467;SDS011;37545;45.302;-122.946;2023-11-18T03:37:50;5.68;;;2.92;;
51467;SDS011;37545;45.302;-122.946;2023-11-18T03:40:20;4.95;;;2.88;;
51467;SDS011;37545;45.302;-122.946;2023-11-18T03:42:49;6.55;;;2.50;;
51467;SDS011;37545;45.302;-122.946;2023-11-18T03:45:18;3.90;;;2.40;;
51467;SDS011;37545;45.302;-122.946;2023-11-18T03:47:49;8.90;;;3.25;;
51467;SDS011;37545;45.302;-122.946;2023-11-18T03:50:18;4.22;;;2.28;;
51467;SDS011;37545;45.302;-122.946;2023-11-18T03:52:49;3.58;;;2.20;;
51467;SDS011;37545;45.302;-122.946;2023-11-18T03:55:18;5.93;;;2.15;;
51467;SDS011;37545;45.302;-122.946;2023-11-18T03:57:46;5.75;;;2.22;;
51467;SDS011;37545;45.302;-122.946;2023-11-18T04:00:16;4.80;;;2.20;;
51467;SDS011;37545;45.302;-122.946;2023-11-18T04:02:49;4.63;;;2.80;;
51467;SDS011;37545;45.302;-122.946;2023-11-18T04:05:18;4.90;;;2.75;;
51467;SDS011;37545;45.302;-122.946;2023-11-18T04:07:47;5.28;;;2.60;;
51467;SDS011;37545;45.302;-122.946;2023-11-18T04:10:15;3.90;;;2.42;;
51467;SDS011;37545;45.302;-122.946;2023-11-18T04:12:45;4.85;;;2.55;;
51467;SDS011;37545;45.302;-122.946;2023-11-18T04:15:14;4.95;;;2.67;;
51467;SDS011;37545;45.302;-122.946;2023-11-18T04:17:43;3.92;;;2.50;;
51467;SDS011;37545;45.302;-122.946;2023-11-18T04:20:16;4.25;;;2.25;;
51467;SDS011;37545;45.302;-122.946;2023-11-18T04:22:44;4.40;;;2.65;;
51467;SDS011;37545;45.302;-122.946;2023-11-18T04:25:13;7.63;;;2.42;;
51467;SDS011;37545;45.302;-122.946;2023-11-18T04:27:42;3.33;;;2.05;;
51467;SDS011;37545;45.302;-122.946;2023-11-18T04:30:11;4.07;;;2.63;;
51467;SDS011;37545;45.302;-122.946;2023-11-18T04:32:40;5.05;;;2.67;;
51467;SDS011;37545;45.302;-122.946;2023-11-18T04:35:09;3.90;;;2.10;;
51467;SDS011;37545;45.302;-122.946;2023-11-18T04:37:42;4.10;;;2.05;;
51467;SDS011;37545;45.302;-122.946;2023-11-18T04:40:11;4.60;;;2.42;;
51467;SDS011;37545;45.302;-122.946;2023-11-18T04:42:40;8.50;;;2.63;;
51467;SDS011;37545;45.302;-122.946;2023-11-18T04:45:09;2.88;;;1.98;;
51467;SDS011;37545;45.302;-122.946;2023-11-18T04:47:39;5.63;;;2.10;;
51467;SDS011;37545;45.302;-122.946;2023-11-18T04:50:09;4.47;;;2.22;;
51467;SDS011;37545;45.302;-122.946;2023-11-18T04:52:39;7.30;;;2.78;;
51467;SDS011;37545;45.302;-122.946;2023-11-18T04:55:17;4.55;;;1.88;;
51467;SDS011;37545;45.302;-122.946;2023-11-18T04:57:46;6.60;;;2.63;;
51467;SDS011;37545;45.302;-122.946;2023-11-18T05:00:15;3.55;;;1.95;;
51467;SDS011;37545;45.302;-122.946;2023-11-18T05:02:45;5.63;;;2.72;;
51467;SDS011;37545;45.302;-122.946;2023-11-18T05:05:14;4.90;;;2.03;;
51467;SDS011;37545;45.302;-122.946;2023-11-18T05:07:43;2.67;;;1.67;;
51467;SDS011;37545;45.302;-122.946;2023-11-18T05:10:12;5.32;;;2.10;;
51467;SDS011;37545;45.302;-122.946;2023-11-18T05:12:42;7.45;;;2.13;;
51467;SDS011;37545;45.302;-122.946;2023-11-18T05:15:19;4.28;;;1.83;;
51467;SDS011;37545;45.302;-122.946;2023-11-18T05:17:50;4.95;;;2.67;;
51467;SDS011;37545;45.302;-122.946;2023-11-18T05:20:19;4.55;;;2.22;;
51467;SDS011;37545;45.302;-122.946;2023-11-18T05:22:48;7.78;;;2.00;;
51467;SDS011;37545;45.302;-122.946;2023-11-18T05:25:17;3.88;;;2.40;;
51467;SDS011;37545;45.302;-122.946;2023-11-18T05:27:47;4.07;;;1.95;;
51467;SDS011;37545;45.302;-122.946;2023-11-18T05:30:16;4.28;;;2.40;;
51467;SDS011;37545;45.302;-122.946;2023-11-18T05:32:44;5.60;;;2.40;;
51467;SDS011;37545;45.302;-122.946;2023-11-18T05:35:13;3.13;;;1.77;;
51467;SDS011;37545;45.302;-122.946;2023-11-18T05:37:42;7.55;;;2.65;;
51467;SDS011;37545;45.302;-122.946;2023-11-18T05:40:11;4.13;;;2.30;;
51467;SDS011;37545;45.302;-122.946;2023-11-18T05:42:41;4.60;;;2.25;;
51467;SDS011;37545;45.302;-122.946;2023-11-18T05:45:13;5.10;;;2.20;;
51467;SDS011;37545;45.302;-122.946;2023-11-18T05:47:53;4.32;;;2.30;;
51467;SDS011;37545;45.302;-122.946;2023-11-18T05:50:22;3.05;;;1.98;;
51467;SDS011;37545;45.302;-122.946;2023-11-18T05:52:52;3.15;;;1.63;;
51467;SDS011;37545;45.302;-122.946;2023-11-18T05:55:21;5.25;;;2.13;;
51467;SDS011;37545;45.302;-122.946;2023-11-18T05:57:50;3.42;;;1.75;;
51467;SDS011;37545;45.302;-122.946;2023-11-18T06:00:20;6.22;;;2.50;;
51467;SDS011;37545;45.302;-122.946;2023-11-18T06:02:50;4.82;;;2.20;;
51467;SDS011;37545;45.302;-122.946;2023-11-18T06:05:19;5.13;;;2.40;;
51467;SDS011;37545;45.302;-122.946;2023-11-18T06:07:51;4.70;;;2.30;;
51467;SDS011;37545;45.302;-122.946;2023-11-18T06:10:20;7.18;;;2.45;;
51467;SDS011;37545;45.302;-122.946;2023-11-18T06:12:49;3.47;;;1.90;;
51467;SDS011;37545;45.302;-122.946;2023-11-18T06:15:20;3.83;;;2.47;;
51467;SDS011;37545;45.302;-122.946;2023-11-18T06:17:48;5.60;;;2.10;;
51467;SDS011;37545;45.302;-122.946;2023-11-18T06:20:17;3.38;;;1.88;;
51467;SDS011;37545;45.302;-122.946;2023-11-18T06:22:46;4.60;;;1.65;;
51467;SDS011;37545;45.302;-122.946;2023-11-18T06:25:14;4.18;;;2.40;;
51467;SDS011;37545;45.302;-122.946;2023-11-18T06:27:43;5.68;;;2.60;;
51467;SDS011;37545;45.302;-122.946;2023-11-18T06:30:13;4.13;;;2.28;;
51467;SDS011;37545;45.302;-122.946;2023-11-18T06:32:44;2.20;;;1.48;;
51467;SDS011;37545;45.302;-122.946;2023-11-18T06:35:14;5.00;;;2.25;;
51467;SDS011;37545;45.302;-122.946;2023-11-18T06:37:43;9.02;;;2.35;;
51467;SDS011;37545;45.302;-122.946;2023-11-18T06:40:12;3.75;;;2.03;;
51467;SDS011;37545;45.302;-122.946;2023-11-18T06:42:47;4.60;;;2.00;;
51467;SDS011;37545;45.302;-122.946;2023-11-18T06:45:16;6.60;;;2.90;;
51467;SDS011;37545;45.302;-122.946;2023-11-18T06:47:46;7.00;;;2.42;;
51467;SDS011;37545;45.302;-122.946;2023-11-18T06:50:15;3.97;;;2.30;;
51467;SDS011;37545;45.302;-122.946;2023-11-18T06:52:43;4.47;;;2.05;;
51467;SDS011;37545;45.302;-122.946;2023-11-18T06:55:12;3.95;;;2.05;;
51467;SDS011;37545;45.302;-122.946;2023-11-18T06:57:42;4.22;;;2.25;;
51467;SDS011;37545;45.302;-122.946;2023-11-18T07:00:15;3.55;;;1.98;;
51467;SDS011;37545;45.302;-122.946;2023-11-18T07:02:48;5.20;;;2.30;;
51467;SDS011;37545;45.302;-122.946;2023-11-18T07:05:16;6.63;;;2.47;;
51467;SDS011;37545;45.302;-122.946;2023-11-18T07:07:46;4.00;;;2.20;;
51467;SDS011;37545;45.302;-122.946;2023-11-18T07:10:14;5.97;;;2.45;;
51467;SDS011;37545;45.302;-122.946;2023-11-18T07:12:46;3.63;;;1.90;;
51467;SDS011;37545;45.302;-122.946;2023-11-18T07:15:15;6.22;;;2.00;;
51467;SDS011;37545;45.302;-122.946;2023-11-18T07:17:43;3.47;;;1.98;;
51467;SDS011;37545;45.302;-122.946;2023-11-18T07:20:13;4.35;;;1.85;;
51467;SDS011;37545;45.302;-122.946;2023-11-18T07:22:42;6.35;;;1.75;;
51467;SDS011;37545;45.302;-122.946;2023-11-18T07:25:11;4.00;;;1.83;;
51467;SDS011;37545;45.302;-122.946;2023-11-18T07:27:39;4.43;;;1.95;;
51467;SDS011;37545;45.302;-122.946;2023-11-18T07:30:08;3.45;;;2.05;;
51467;SDS011;37545;45.302;-122.946;2023-11-18T07:32:37;2.13;;;1.50;;
51467;SDS011;37545;45.302;-122.946;2023-11-18T07:35:07;4.15;;;2.10;;
51467;SDS011;37545;45.302;-122.946;2023-11-18T07:37:41;4.25;;;2.00;;
51467;SDS011;37545;45.302;-122.946;2023-11-18T07:40:10;3.58;;;1.67;;
51467;SDS011;37545;45.302;-122.946;2023-11-18T07:42:47;2.35;;;1.65;;
51467;SDS011;37545;45.302;-122.946;2023-11-18T07:45:16;5.22;;;1.70;;
51467;SDS011;37545;45.302;-122.946;2023-11-18T07:47:44;5.95;;;2.00;;
51467;SDS011;37545;45.302;-122.946;2023-11-18T07:50:13;4.28;;;2.10;;
51467;SDS011;37545;45.302;-122.946;2023-11-18T07:52:43;2.30;;;1.77;;
51467;SDS011;37545;45.302;-122.946;2023-11-18T07:55:12;2.60;;;1.45;;
51467;SDS011;37545;45.302;-122.946;2023-11-18T07:57:40;2.78;;;1.48;;
51467;SDS011;37545;45.302;-122.946;2023-11-18T08:00:10;4.78;;;1.63;;
51467;SDS011;37545;45.302;-122.946;2023-11-18T08:02:40;3.45;;;1.85;;
51467;SDS011;37545;45.302;-122.946;2023-11-18T08:05:10;3.45;;;1.83;;
51467;SDS011;37545;45.302;-122.946;2023-11-18T08:07:39;5.55;;;2.10;;
51467;SDS011;37545;45.302;-122.946;2023-11-18T08:10:11;3.97;;;1.88;;
51467;SDS011;37545;45.302;-122.946;2023-11-18T08:12:44;3.38;;;1.80;;
51467;SDS011;37545;45.302;-122.946;2023-11-18T08:15:13;2.92;;;1.63;;
51467;SDS011;37545;45.302;-122.946;2023-11-18T08:17:42;3.30;;;1.92;;
51467;SDS011;37545;45.302;-122.946;2023-11-18T08:20:10;3.60;;;2.17;;
51467;SDS011;37545;45.302;-122.946;2023-11-18T08:22:41;3.38;;;1.88;;
51467;SDS011;37545;45.302;-122.946;2023-11-18T08:25:12;2.60;;;1.65;;
51467;SDS011;37545;45.302;-122.946;2023-11-18T08:27:43;3.15;;;1.50;;
51467;SDS011;37545;45.302;-122.946;2023-11-18T08:30:12;5.07;;;2.03;;
51467;SDS011;37545;45.302;-122.946;2023-11-18T08:32:43;2.83;;;1.63;;
51467;SDS011;37545;45.302;-122.946;2023-11-18T08:35:13;2.58;;;1.80;;
51467;SDS011;37545;45.302;-122.946;2023-11-18T08:37:42;2.80;;;1.60;;
51467;SDS011;37545;45.302;-122.946;2023-11-18T08:40:13;3.15;;;1.92;;
51467;SDS011;37545;45.302;-122.946;2023-11-18T08:42:42;6.82;;;1.70;;
51467;SDS011;37545;45.302;-122.946;2023-11-18T08:45:15;3.60;;;1.80;;
51467;SDS011;37545;45.302;-122.946;2023-11-18T08:47:45;4.13;;;1.70;;
51467;SDS011;37545;45.302;-122.946;2023-11-18T08:50:14;3.33;;;1.92;;
51467;SDS011;37545;45.302;-122.946;2023-11-18T08:52:43;3.10;;;1.90;;
51467;SDS011;37545;45.302;-122.946;2023-11-18T08:55:14;3.25;;;1.67;;
51467;SDS011;37545;45.302;-122.946;2023-11-18T08:57:46;4.28;;;1.85;;
51467;SDS011;37545;45.302;-122.946;2023-11-18T09:00:18;4.80;;;2.00;;
51467;SDS011;37545;45.302;-122.946;2023-11-18T09:03:00;3.22;;;2.03;;
51467;SDS011;37545;45.302;-122.946;2023-11-18T09:05:33;2.53;;;1.48;;
51467;SDS011;37545;45.302;-122.946;2023-11-18T09:08:04;5.80;;;1.42;;
51467;SDS011;37545;45.302;-122.946;2023-11-18T09:10:34;5.18;;;1.77;;
51467;SDS011;37545;45.302;-122.946;2023-11-18T09:13:03;4.50;;;1.80;;
51467;SDS011;37545;45.302;-122.946;2023-11-18T09:15:32;4.25;;;1.60;;
51467;SDS011;37545;45.302;-122.946;2023-11-18T09:18:02;4.68;;;2.22;;
51467;SDS011;37545;45.302;-122.946;2023-11-18T09:20:35;3.20;;;1.65;;
51467;SDS011;37545;45.302;-122.946;2023-11-18T09:23:05;4.75;;;2.47;;
51467;SDS011;37545;45.302;-122.946;2023-11-18T09:25:36;2.50;;;1.40;;
51467;SDS011;37545;45.302;-122.946;2023-11-18T09:28:06;2.85;;;1.40;;
51467;SDS011;37545;45.302;-122.946;2023-11-18T09:30:37;3.50;;;1.70;;
51467;SDS011;37545;45.302;-122.946;2023-11-18T09:33:17;4.95;;;1.83;;
51467;SDS011;37545;45.302;-122.946;2023-11-18T09:35:55;2.92;;;1.55;;
51467;SDS011;37545;45.302;-122.946;2023-11-18T09:38:26;3.53;;;1.90;;
51467;SDS011;37545;45.302;-122.946;2023-11-18T09:40:59;4.97;;;1.92;;
51467;SDS011;37545;45.302;-122.946;2023-11-18T09:43:29;2.83;;;1.40;;
51467;SDS011;37545;45.302;-122.946;2023-11-18T09:46:03;3.58;;;1.85;;
51467;SDS011;37545;45.302;-122.946;2023-11-18T09:48:39;3.53;;;1.63;;
51467;SDS011;37545;45.302;-122.946;2023-11-18T09:51:17;5.35;;;2.15;;
51467;SDS011;37545;45.302;-122.946;2023-11-18T09:53:49;2.45;;;1.55;;
51467;SDS011;37545;45.302;-122.946;2023-11-18T09:56:22;4.63;;;1.70;;
51467;SDS011;37545;45.302;-122.946;2023-11-18T09:59:05;3.95;;;1.88;;
51467;SDS011;37545;45.302;-122.946;2023-11-18T10:01:42;2.75;;;1.63;;
51467;SDS011;37545;45.302;-122.946;2023-11-18T10:04:12;2.78;;;1.75;;
51467;SDS011;37545;45.302;-122.946;2023-11-18T10:06:44;4.40;;;2.22;;
51467;SDS011;37545;45.302;-122.946;2023-11-18T10:09:15;3.95;;;1.45;;
51467;SDS011;37545;45.302;-122.946;2023-11-18T10:11:55;3.13;;;1.70;;
51467;SDS011;37545;45.302;-122.946;2023-11-18T10:14:30;3.78;;;2.05;;
51467;SDS011;37545;45.302;-122.946;2023-11-18T10:16:59;5.10;;;1.85;;
51467;SDS011;37545;45.302;-122.946;2023-11-18T10:19:52;3.08;;;1.52;;
51467;SDS011;37545;45.302;-122.946;2023-11-18T10:22:22;3.35;;;1.58;;
51467;SDS011;37545;45.302;-122.946;2023-11-18T10:24:52;3.72;;;1.95;;
51467;SDS011;37545;45.302;-122.946;2023-11-18T10:27:24;3.47;;;1.65;;
51467;SDS011;37545;45.302;-122.946;2023-11-18T10:32:27;2.95;;;1.48;;
51467;SDS011;37545;45.302;-122.946;2023-11-18T10:35:01;4.88;;;1.70;;
51467;SDS011;37545;45.302;-122.946;2023-11-18T10:37:32;4.40;;;2.13;;
51467;SDS011;37545;45.302;-122.946;2023-11-18T10:40:09;2.95;;;1.63;;
51467;SDS011;37545;45.302;-122.946;2023-11-18T10:42:42;4.00;;;1.60;;
51467;SDS011;37545;45.302;-122.946;2023-11-18T10:45:15;3.78;;;1.88;;
51467;SDS011;37545;45.302;-122.946;2023-11-18T10:47:53;3.90;;;1.77;;
51467;SDS011;37545;45.302;-122.946;2023-11-18T10:50:23;4.78;;;1.92;;
51467;SDS011;37545;45.302;-122.946;2023-11-18T10:52:57;5.22;;;2.08;;
51467;SDS011;37545;45.302;-122.946;2023-11-18T10:55:35;3.80;;;1.85;;
51467;SDS011;37545;45.302;-122.946;2023-11-18T10:58:07;3.58;;;1.85;;
51467;SDS011;37545;45.302;-122.946;2023-11-18T11:00:48;3.90;;;1.63;;
51467;SDS011;37545;45.302;-122.946;2023-11-18T11:03:19;4.70;;;2.10;;
51467;SDS011;37545;45.302;-122.946;2023-11-18T11:05:49;4.22;;;1.60;;
51467;SDS011;37545;45.302;-122.946;2023-11-18T11:08:19;5.25;;;1.65;;
51467;SDS011;37545;45.302;-122.946;2023-11-18T11:10:54;5.07;;;2.65;;
51467;SDS011;37545;45.302;-122.946;2023-11-18T11:13:27;4.65;;;2.08;;
51467;SDS011;37545;45.302;-122.946;2023-11-18T11:15:58;4.97;;;1.80;;
51467;SDS011;37545;45.302;-122.946;2023-11-18T11:18:34;4.93;;;1.88;;
51467;SDS011;37545;45.302;-122.946;2023-11-18T11:21:12;2.85;;;1.70;;
51467;SDS011;37545;45.302;-122.946;2023-11-18T11:23:49;3.28;;;2.13;;
51467;SDS011;37545;45.302;-122.946;2023-11-18T11:26:26;4.10;;;1.40;;
51467;SDS011;37545;45.302;-122.946;2023-11-18T11:29:11;3.05;;;1.88;;
51467;SDS011;37545;45.302;-122.946;2023-11-18T11:31:55;3.15;;;1.63;;
51467;SDS011;37545;45.302;-122.946;2023-11-18T11:34:32;3.83;;;2.03;;
51467;SDS011;37545;45.302;-122.946;2023-11-18T11:37:03;5.57;;;2.20;;
51467;SDS011;37545;45.302;-122.946;2023-11-18T11:39:35;2.72;;;1.75;;
51467;SDS011;37545;45.302;-122.946;2023-11-18T11:42:12;3.25;;;2.13;;
51467;SDS011;37545;45.302;-122.946;2023-11-18T11:44:54;2.72;;;1.38;;
51467;SDS011;37545;45.302;-122.946;2023-11-18T11:47:26;6.22;;;2.17;;
51467;SDS011;37545;45.302;-122.946;2023-11-18T11:50:00;5.60;;;2.03;;
51467;SDS011;37545;45.302;-122.946;2023-11-18T11:52:39;4.03;;;1.88;;
51467;SDS011;37545;45.302;-122.946;2023-11-18T11:55:19;4.25;;;2.08;;
51467;SDS011;37545;45.302;-122.946;2023-11-18T11:57:58;5.80;;;2.40;;
51467;SDS011;37545;45.302;-122.946;2023-11-18T12:00:32;5.63;;;2.15;;
51467;SDS011;37545;45.302;-122.946;2023-11-18T12:03:01;4.63;;;2.08;;
51467;SDS011;37545;45.302;-122.946;2023-11-18T12:05:31;4.13;;;2.35;;
51467;SDS011;37545;45.302;-122.946;2023-11-18T12:08:09;4.05;;;1.83;;
51467;SDS011;37545;45.302;-122.946;2023-11-18T12:10:39;3.65;;;2.33;;
51467;SDS011;37545;45.302;-122.946;2023-11-18T12:13:07;3.05;;;1.75;;
51467;SDS011;37545;45.302;-122.946;2023-11-18T12:15:49;3.38;;;2.15;;
51467;SDS011;37545;45.302;-122.946;2023-11-18T12:18:22;4.50;;;2.03;;
51467;SDS011;37545;45.302;-122.946;2023-11-18T12:20:58;3.85;;;2.10;;
51467;SDS011;37545;45.302;-122.946;2023-11-18T12:26:48;2.50;;;1.55;;
51467;SDS011;37545;45.302;-122.946;2023-11-18T12:29:32;3.65;;;1.63;;
51467;SDS011;37545;45.302;-122.946;2023-11-18T12:32:03;2.10;;;1.42;;
51467;SDS011;37545;45.302;-122.946;2023-11-18T12:34:52;5.70;;;2.20;;
51467;SDS011;37545;45.302;-122.946;2023-11-18T12:37:33;4.75;;;1.95;;
51467;SDS011;37545;45.302;-122.946;2023-11-18T12:43:38;4.20;;;1.75;;
51467;SDS011;37545;45.302;-122.946;2023-11-18T12:49:22;5.18;;;1.60;;
51467;SDS011;37545;45.302;-122.946;2023-11-18T12:51:54;4.85;;;1.73;;
51467;SDS011;37545;45.302;-122.946;2023-11-18T12:54:23;2.03;;;1.38;;
51467;SDS011;37545;45.302;-122.946;2023-11-18T12:56:54;4.53;;;2.05;;
51467;SDS011;37545;45.302;-122.946;2023-11-18T12:59:23;4.10;;;1.70;;
51467;SDS011;37545;45.302;-122.946;2023-11-18T13:01:52;4.88;;;2.22;;
51467;SDS011;37545;45.302;-122.946;2023-11-18T13:04:24;5.93;;;1.77;;
51467;SDS011;37545;45.302;-122.946;2023-11-18T13:06:53;3.65;;;1.50;;
51467;SDS011;37545;45.302;-122.946;2023-11-18T13:09:23;5.93;;;2.15;;
51467;SDS011;37545;45.302;-122.946;2023-11-18T13:11:52;3.88;;;1.83;;
51467;SDS011;37545;45.302;-122.946;2023-11-18T13:14:23;4.73;;;1.97;;
51467;SDS011;37545;45.302;-122.946;2023-11-18T13:16:53;4.18;;;2.25;;
51467;SDS011;37545;45.302;-122.946;2023-11-18T13:19:25;3.88;;;2.13;;
51467;SDS011;37545;45.302;-122.946;2023-11-18T13:21:58;4.28;;;2.22;;
51467;SDS011;37545;45.302;-122.946;2023-11-18T13:24:29;4.18;;;2.22;;
51467;SDS011;37545;45.302;-122.946;2023-11-18T13:26:58;3.65;;;1.83;;
51467;SDS011;37545;45.302;-122.946;2023-11-18T13:29:30;3.53;;;1.73;;
51467;SDS011;37545;45.302;-122.946;2023-11-18T13:32:00;4.35;;;1.70;;
51467;SDS011;37545;45.302;-122.946;2023-11-18T13:34:32;4.00;;;1.83;;
51467;SDS011;37545;45.302;-122.946;2023-11-18T13:37:03;3.42;;;1.92;;
51467;SDS011;37545;45.302;-122.946;2023-11-18T13:39:38;3.00;;;2.00;;
51467;SDS011;37545;45.302;-122.946;2023-11-18T13:42:20;3.10;;;1.48;;
51467;SDS011;37545;45.302;-122.946;2023-11-18T13:44:52;5.80;;;2.72;;
51467;SDS011;37545;45.302;-122.946;2023-11-18T13:47:21;2.85;;;1.58;;
51467;SDS011;37545;45.302;-122.946;2023-11-18T13:49:53;6.03;;;1.85;;
51467;SDS011;37545;45.302;-122.946;2023-11-18T13:52:24;5.13;;;1.80;;
51467;SDS011;37545;45.302;-122.946;2023-11-18T13:54:56;4.07;;;2.33;;
51467;SDS011;37545;45.302;-122.946;2023-11-18T13:57:26;5.60;;;1.77;;
51467;SDS011;37545;45.302;-122.946;2023-11-18T13:59:55;2.97;;;2.10;;
51467;SDS011;37545;45.302;-122.946;2023-11-18T14:02:24;4.55;;;1.83;;
51467;SDS011;37545;45.302;-122.946;2023-11-18T14:04:57;2.42;;;1.50;;
51467;SDS011;37545;45.302;-122.946;2023-11-18T14:07:27;3.42;;;1.58;;
51467;SDS011;37545;45.302;-122.946;2023-11-18T14:09:57;3.33;;;1.92;;
51467;SDS011;37545;45.302;-122.946;2023-11-18T14:12:26;5.40;;;1.67;;
51467;SDS011;37545;45.302;-122.946;2023-11-18T14:15:00;3.67;;;1.88;;
51467;SDS011;37545;45.302;-122.946;2023-11-18T14:17:29;4.32;;;1.80;;
51467;SDS011;37545;45.302;-122.946;2023-11-18T14:20:00;4.93;;;2.42;;
51467;SDS011;37545;45.302;-122.946;2023-11-18T14:22:29;4.05;;;2.13;;
51467;SDS011;37545;45.302;-122.946;2023-11-18T14:25:02;4.20;;;2.08;;
51467;SDS011;37545;45.302;-122.946;2023-11-18T14:27:32;4.47;;;2.10;;
51467;SDS011;37545;45.302;-122.946;2023-11-18T14:30:00;3.50;;;1.58;;
51467;SDS011;37545;45.302;-122.946;2023-11-18T14:32:29;5.85;;;2.30;;
51467;SDS011;37545;45.302;-122.946;2023-11-18T14:35:01;4.32;;;1.90;;
51467;SDS011;37545;45.302;-122.946;2023-11-18T14:37:35;4.35;;;2.55;;
51467;SDS011;37545;45.302;-122.946;2023-11-18T14:40:08;5.07;;;2.42;;
51467;SDS011;37545;45.302;-122.946;2023-11-18T14:42:43;5.55;;;2.08;;
51467;SDS011;37545;45.302;-122.946;2023-11-18T14:45:14;4.88;;;2.20;;
51467;SDS011;37545;45.302;-122.946;2023-11-18T14:47:43;6.68;;;2.58;;
51467;SDS011;37545;45.302;-122.946;2023-11-18T14:50:18;6.07;;;2.15;;
51467;SDS011;37545;45.302;-122.946;2023-11-18T14:52:47;2.97;;;1.52;;